• Join FlightAware (Why Join?)
  • Login
  • US Flag 
10:19AM EDT


 

Airport Tracker/Info


-or-


 

Live Flight TrackerFlight Track Log ✈ TCF5990 ✈ 24-Apr-2013 ✈ KCMH - KLGA

Flight Track Log - Related Links

Times and Time Zones

All times are in EDT time to prevent confusion due to time zone crossing. See the TCF5990 flight status page for this flight to view local times or setup timezone preferences in your user account.

Time Position Orientation Groundspeed Altitude Reporting Facility
EDT Latitude Longitude Course Direction KTS MPH feet Rate Location/Type
04:03PM 40.0025 -82.9103 90° East 151 174 1,500  Level Indianapolis Center
04:03PM 40.0036 -82.9267 275° West 144 166 2,300 2,040 Climbing Indianapolis Center
04:04PM 39.9856 -82.9781 245° Southwest 206 237 4,100 1,980 Climbing Indianapolis Center
04:05PM 39.9336 -82.9206 140° Southeast 276 318 6,300 2,820 Climbing Indianapolis Center
04:06PM 40.0606 -82.2982 79° East  Level FlightAware Approximate
04:06PM 39.9231 -82.8053 97° East 319 367 10,000  Level Indianapolis Center
04:07PM 40.0830 -82.1520 79° East  Level FlightAware Approximate
04:08PM 40.1016 -82.0049 81° East  Level FlightAware Approximate
04:08PM 39.9256 -82.6783 88° East 348 400 12,100  Level Indianapolis Center
04:09PM 40.1167 -81.8679 90° East  Level FlightAware Approximate
04:09PM 39.9500 -82.5397 77° East 384 442 14,300  Level Indianapolis Center
04:10PM 39.9739 -82.3931 78° East 405 466 15,900 1,740 Climbing Indianapolis Center
04:11PM 40.0006 -82.2328 78° East 441 507 18,000 2,220 Climbing Indianapolis Center
04:12PM 40.0297 -82.0486 78° East 441 507 20,500 1,920 Climbing Indianapolis Center
04:13PM 40.0569 -81.8839 78° East 453 521 22,100 1,560 Climbing Indianapolis Center
04:14PM 40.0844 -81.7150 78° East 467 537 23,800 1,500 Climbing Indianapolis Center
04:15PM 40.1114 -81.5403 79° East 479 551 25,300 1,500 Climbing Indianapolis Center
04:15PM 40.1328 -81.4194 77° East 479 551 26,300 1,740 Climbing Cleveland Center
04:16PM 40.1297 -81.2483 91° East 479 551 28,100 1,680 Climbing Cleveland Center
04:17PM 40.1247 -81.1875 96° East 479 551 28,800 900 Climbing Indianapolis Center
04:17PM 40.1244 -81.0744 90° East 479 551 29,000 120 Climbing Cleveland Center
04:18PM 40.1272 -80.8872 89° East 485 558 29,000  Level Cleveland Center
04:19PM 40.1442 -80.6889 84° East 510 587 29,000  Level Cleveland Center
04:20PM 40.1525 -80.4933 87° East 536 617 29,000  Level Cleveland Center
04:21PM 40.1044 -80.3225 110° East 509 586 29,000  Level Cleveland Center
04:22PM 40.0600 -80.1492 108° East 509 586 29,000  Level Cleveland Center
04:23PM 40.0864 -79.9589 80° East 509 586 29,000  Level Cleveland Center
04:24PM 40.1750 -79.8169 51° Northeast 519 597 29,000  Level Cleveland Center
04:25PM 40.2719 -79.6606 51° Northeast 535 616 29,000  Level Cleveland Center
04:26PM 40.3686 -79.5094 50° Northeast 535 616 29,000  Level Cleveland Center
04:27PM 40.4650 -79.3550 51° Northeast 540 621 29,000  Level Cleveland Center
04:28PM 40.5592 -79.2058 50° Northeast 540 621 29,000  Level Cleveland Center
04:29PM 40.6553 -79.0533 50° Northeast 540 621 29,000  Level Cleveland Center
04:30PM 40.7469 -78.9031 51° Northeast 530 610 29,000  Level Cleveland Center
04:31PM 40.8425 -78.7497 50° Northeast 530 610 29,000  Level Cleveland Center
04:32PM 40.9381 -78.5986 50° Northeast 530 610 29,000 -900 Level Cleveland Center
04:33PM 41.0272 -78.4556 50° Northeast 524 603 27,200 -1,800 Descending Cleveland Center
04:35PM 41.1411 -78.2656 51° Northeast 517 595 25,000 -1,020 Descending New York Center
04:36PM 41.2014 -78.1011 64° Northeast 486 559 25,000  Level New York Center
04:37PM 41.1908 -77.9317 95° East 454 522 25,000  Level New York Center
04:38PM 41.1692 -77.7694 100° East 441 507 25,000  Level New York Center
04:39PM 41.1475 -77.6047 100° East 446 513 25,000  Level New York Center
04:40PM 41.1278 -77.4403 99° East 451 519 25,000  Level New York Center
04:41PM 41.1031 -77.2833 102° East 445 512 25,000  Level New York Center
04:42PM 41.0828 -77.1217 99° East 445 512 25,000 -540 Level New York Center
04:43PM 41.0619 -76.9631 100° East 440 506 24,000 -1,080 Descending New York Center
04:44PM 41.0392 -76.8014 101° East 440 506 22,900 -1,080 Descending New York Center
04:45PM 41.0153 -76.6506 102° East 434 499 21,900 -1,020 Descending New York Center
04:46PM 40.9831 -76.5022 106° East 422 486 20,900 -1,020 Descending New York Center
04:47PM 40.9483 -76.3592 108° East 416 479 19,900 -1,200 Descending New York Center
04:48PM 40.9153 -76.2164 107° East 411 473 18,500 -1,620 Descending New York Center
04:49PM 40.8819 -76.0792 108° East 404 465 16,800 -1,740 Descending New York Center
04:50PM 40.8503 -75.9450 107° East 383 441 15,100 -1,680 Descending New York Center
04:51PM 40.8167 -75.8108 108° East 383 441 13,500 -1,140 Descending New York Center
04:52PM 40.7808 -75.6711 109° East 389 448 12,900 -300 Descending New York Center
04:53PM 40.7447 -75.5317 109° East 395 455 12,900 -240 Level New York Center
04:54PM 40.7131 -75.3842 106° East 407 468 12,500 -660 Descending New York Center
04:55PM 40.6831 -75.2425 106° East 407 468 11,600 -900 Descending New York Center
04:56PM 40.6422 -75.1142 113° Southeast 400 460 10,800 -780 Descending New York Center
04:57PM 40.5864 -75.0394 135° Southeast 346 398 10,100 -480 Descending New York Center
04:58PM 40.5464 -74.9361 117° Southeast 319 367 9,900 -120 Descending New York Center
04:59PM 40.5111 -74.8136 111° Southeast 319 367 9,900 60 Level New York Center
04:59PM 40.5000 -74.7833 116° Southeast 323 372 10,000 60 Climbing New York TRACON
05:00PM 40.4667 -74.6667 111° Southeast 323 372 10,000  Level New York TRACON
05:01PM 40.4333 -74.5667 114° Southeast 322 371 10,000  Level New York TRACON
05:02PM 40.4000 -74.4500 111° Southeast 320 368 10,100  Climbing New York TRACON
05:03PM 40.3833 -74.3333 101° East 334 384 10,100 -120 Level New York TRACON
05:04PM 40.4333 -74.2500 52° Northeast 330 380 9,900 -1,020 Descending New York TRACON
05:05PM 40.5167 -74.1667 37° Northeast 323 372 8,000 -1,860 Descending New York TRACON
05:06PM 40.5833 -74.1000 37° Northeast 325 374 6,200 -1,740 Descending New York TRACON
05:07PM 40.6667 -74.0500 24° Northeast 310 357 4,600 -1,020 Descending New York TRACON
05:08PM 40.7333 -74.0167 21° North 268 308 4,100 -300 Descending New York TRACON
05:09PM 40.8000 -73.9833 21° North 254 292 4,000 -60 Descending New York TRACON
05:10PM 40.8500 -73.9500 27° Northeast 221 254 4,000  Level New York TRACON
05:11PM 40.9167 -73.9167 21° North 220 253 4,000  Level New York TRACON
05:12PM 40.9500 -73.8667 49° Northeast 224 258 4,100  Climbing New York TRACON
05:13PM 41.0000 -73.8000 45° Northeast 222 255 4,000 -120 Descending New York TRACON
05:14PM 41.0000 -73.7167 90° East 216 249 3,900 -540 Descending New York TRACON
05:15PM 40.9667 -73.7000 159° South 181 208 3,000 -480 Descending New York TRACON
05:16PM 40.9500 -73.7333 237° Southwest 164 189 3,000 -60 Level New York TRACON
05:17PM 40.9000 -73.7667 207° Southwest 162 186 2,900 -540 Descending New York TRACON
05:18PM 40.8667 -73.8000 217° Southwest 168 193 2,000 -900 Descending New York TRACON